Terminal Aerodrome Forecast
Issued by NWS Tulsa, OK

Home | Current Version | Previous Version | Text Only | Print | Product List | Glossary On
Versions: 1 2 3 4 5 6 7 8 9 10 11 12 13 14 15
000
FTUS44 KTSA 041720
TAFTUL
TAF
KTUL 041720Z 0418/0518 32008KT P6SM BKN025
      TEMPO 0418/0421 SCT025
     FM042100 35006KT P6SM SKC
     FM050000 VRB02KT P6SM SCT250
     FM050900 15003KT 3SM BR FEW003 SCT250
     FM051500 16006KT P6SM SCT250=

USA.gov is the U.S. government's official web portal to all federal, state and local government web resources and services.